Time;durP1;ratioP1;P1;durP2;ratioP2;P2;SDS_P1;SDS_P2;PMS_P1;PMS_P2;Temp;Humidity;BMP_temperature;BMP_pressure;BME280_temperature;BME280_humidity;BME280_pressure;Samples;Min_cycle;Max_cycle;Signal;HPM_P1;HPM_P2
2024/04/17 00:01:21;;;;;;;;;;;6.70;99.90;;;;;;6680914;88;20215;-77
2024/04/17 00:11:21;;;;;;;;;;;6.60;99.90;;;;;;6674912;88;20083;-76
2024/04/17 00:21:22;;;;;;;;;;;6.60;99.90;;;;;;6677898;88;20089;-76
2024/04/17 00:31:22;;;;;;;;;;;6.70;99.90;;;;;;6676836;88;20210;-76
2024/04/17 00:41:22;;;;;;;;;;;6.80;99.90;;;;;;6678216;88;20072;-76
2024/04/17 00:51:23;;;;;;;;;;;6.80;99.90;;;;;;6680530;88;20553;-76
2024/04/17 01:01:23;;;;;;;;;;;6.80;99.90;;;;;;6678871;88;20217;-76
2024/04/17 01:11:24;;;;;;;;;;;6.80;99.90;;;;;;6686110;88;20131;-76
2024/04/17 01:21:24;;;;;;;;;;;6.80;99.90;;;;;;6680859;89;20072;-77
2024/04/17 01:31:25;;;;;;;;;;;6.70;99.90;;;;;;6677409;88;20057;-77
2024/04/17 01:41:25;;;;;;;;;;;6.70;99.90;;;;;;6677485;87;20468;-77
2024/04/17 01:51:26;;;;;;;;;;;6.60;99.90;;;;;;6684917;88;20076;-76
2024/04/17 02:01:26;;;;;;;;;;;6.40;99.90;;;;;;6687908;88;20565;-76
2024/04/17 02:11:27;;;;;;;;;;;6.30;99.90;;;;;;6689310;88;20228;-76
2024/04/17 02:21:27;;;;;;;;;;;6.20;99.90;;;;;;6679416;88;20463;-76
2024/04/17 02:31:28;;;;;;;;;;;6.20;99.90;;;;;;6684155;88;20099;-76
2024/04/17 02:41:28;;;;;;;;;;;6.10;99.90;;;;;;6677307;88;20074;-76
2024/04/17 02:51:29;;;;;;;;;;;6.00;99.90;;;;;;6678616;88;20069;-76
2024/04/17 03:01:31;;;;;;;;;;;5.90;99.90;;;;;;6680313;88;20069;-77
2024/04/17 03:11:32;;;;;;;;;;;5.90;99.90;;;;;;6676135;89;20128;-76
2024/04/17 03:21:32;;;;;;;;;;;5.80;99.90;;;;;;6677906;88;20641;-77
2024/04/17 03:31:32;;;;;;;;;;;5.80;99.90;;;;;;6678425;88;20088;-76
2024/04/17 03:41:33;;;;;;;;;;;5.60;99.90;;;;;;6678006;88;20478;-76
2024/04/17 03:51:33;;;;;;;;;;;5.70;99.90;;;;;;6683687;88;20066;-76
2024/04/17 04:01:36;;;;;;;;;;;5.70;99.90;;;;;;6686719;88;20556;-77
2024/04/17 04:11:37;;;;;;;;;;;5.70;99.90;;;;;;6686150;88;20052;-77
2024/04/17 04:21:38;;;;;;;;;;;5.60;99.90;;;;;;6675259;88;20652;-76
2024/04/17 04:31:38;;;;;;;;;;;5.60;99.90;;;;;;6678222;88;20181;-76
2024/04/17 04:41:39;;;;;;;;;;;5.40;99.90;;;;;;6676307;88;20090;-76
2024/04/17 04:51:39;;;;;;;;;;;5.40;99.90;;;;;;6678904;88;20074;-76
2024/04/17 05:01:40;;;;;;;;;;;5.20;99.90;;;;;;6681388;78;20076;-75
2024/04/17 05:11:40;;;;;;;;;;;5.20;99.90;;;;;;6667667;89;20057;-75
2024/04/17 05:21:40;;;;;;;;;;;5.20;99.90;;;;;;6674293;88;20077;-75
2024/04/17 05:31:41;;;;;;;;;;;5.10;99.90;;;;;;6674339;88;20093;-74
2024/04/17 05:41:41;;;;;;;;;;;5.10;99.90;;;;;;6677107;87;20092;-75
2024/04/17 05:51:42;;;;;;;;;;;5.10;99.90;;;;;;6675885;88;20098;-76
2024/04/17 06:01:42;;;;;;;;;;;5.20;99.90;;;;;;6682427;87;20065;-77
2024/04/17 06:11:43;;;;;;;;;;;5.40;99.90;;;;;;6677855;88;20227;-76
2024/04/17 06:21:44;;;;;;;;;;;5.60;99.90;;;;;;6682730;88;20117;-75
2024/04/17 06:31:44;;;;;;;;;;;5.50;99.90;;;;;;6683485;88;20083;-75
2024/04/17 06:41:45;;;;;;;;;;;5.60;99.90;;;;;;6674350;88;20172;-74
2024/04/17 06:51:46;;;;;;;;;;;5.70;99.90;;;;;;6679113;88;20085;-73
2024/04/17 07:01:46;;;;;;;;;;;5.90;99.90;;;;;;6682508;87;20072;-73
2024/04/17 07:11:47;;;;;;;;;;;6.10;99.90;;;;;;6678486;88;20165;-76
2024/04/17 07:21:47;;;;;;;;;;;6.40;99.90;;;;;;6668587;87;20065;-75
2024/04/17 07:31:48;;;;;;;;;;;6.60;99.90;;;;;;6675028;88;20113;-74
2024/04/17 07:41:49;;;;;;;;;;;6.70;99.90;;;;;;6670882;88;20265;-75
2024/04/17 07:51:49;;;;;;;;;;;6.70;99.90;;;;;;6670507;88;20152;-75
2024/04/17 08:01:50;;;;;;;;;;;6.60;99.90;;;;;;6671985;88;20069;-74
2024/04/17 08:11:52;;;;;;;;;;;6.50;99.90;;;;;;6671312;89;20083;-75
2024/04/17 08:21:52;;;;;;;;;;;6.60;99.90;;;;;;6679637;88;20056;-76
2024/04/17 08:31:53;;;;;;;;;;;6.40;99.90;;;;;;6689999;88;20074;-75
2024/04/17 08:42:03;;;;;;;;;;;6.50;99.90;;;;;;6680118;88;20241;-75
2024/04/17 08:52:03;;;;;;;;;;;6.30;99.90;;;;;;6676419;88;20521;-76
2024/04/17 09:02:10;;;;;;;;;;;6.70;99.90;;;;;;6680252;87;20073;-75
2024/04/17 09:12:11;;;;;;;;;;;6.50;99.90;;;;;;6678957;88;20056;-76
2024/04/17 09:22:12;;;;;;;;;;;6.30;99.90;;;;;;6673850;88;20479;-76
2024/04/17 09:32:14;;;;;;;;;;;6.30;99.90;;;;;;6701626;88;20074;-75
2024/04/17 09:42:15;;;;;;;;;;;6.70;99.90;;;;;;6679672;87;20069;-76
2024/04/17 09:52:17;;;;;;;;;;;6.90;99.90;;;;;;6675341;88;20577;-76
2024/04/17 10:02:18;;;;;;;;;;;7.10;99.90;;;;;;6680622;88;20073;-76
2024/04/17 10:12:21;;;;;;;;;;;6.90;99.90;;;;;;6675684;89;20390;-76
2024/04/17 10:22:22;;;;;;;;;;;6.60;99.90;;;;;;6682820;88;20060;-75
2024/04/17 10:32:22;;;;;;;;;;;6.40;99.90;;;;;;6680378;88;20048;-76
2024/04/17 10:42:23;;;;;;;;;;;6.50;99.90;;;;;;6678281;88;20459;-77
2024/04/17 10:52:24;;;;;;;;;;;6.70;99.90;;;;;;6671560;88;20107;-76
2024/04/17 11:12:28;;;;;;;;;;;8.60;99.90;;;;;;6728235;88;20500;-77
2024/04/17 11:22:29;;;;;;;;;;;8.70;99.90;;;;;;6723580;88;20682;-76
2024/04/17 11:32:29;;;;;;;;;;;8.40;99.90;;;;;;6724887;88;20224;-76
2024/04/17 11:42:30;;;;;;;;;;;8.90;99.90;;;;;;6726166;88;20173;-76
2024/04/17 11:52:32;;;;;;;;;;;10.60;99.90;;;;;;6717004;88;20077;-77
2024/04/17 12:02:32;;;;;;;;;;;11.30;99.90;;;;;;6718982;88;20078;-77
2024/04/17 12:12:33;;;;;;;;;;;11.00;99.90;;;;;;6716106;88;20076;-77
2024/04/17 12:22:33;;;;;;;;;;;11.70;99.90;;;;;;6720605;88;20101;-78
2024/04/17 12:32:34;;;;;;;;;;;13.20;99.90;;;;;;6716630;88;20218;-77
2024/04/17 12:42:34;;;;;;;;;;;12.80;99.90;;;;;;6716683;88;20054;-76
2024/04/17 12:52:35;;;;;;;;;;;12.30;99.90;;;;;;6716085;88;20192;-76
2024/04/17 13:02:35;;;;;;;;;;;11.90;99.90;;;;;;6714973;88;20058;-77
2024/04/17 13:12:36;;;;;;;;;;;11.30;99.90;;;;;;6718349;88;20063;-77
2024/04/17 13:22:36;;;;;;;;;;;10.10;99.90;;;;;;6714006;88;20055;-76
2024/04/17 13:32:37;;;;;;;;;;;9.00;99.90;;;;;;6714550;88;20637;-74
2024/04/17 13:42:37;;;;;;;;;;;10.40;99.90;;;;;;6713237;88;20261;-75
2024/04/17 13:52:38;;;;;;;;;;;11.50;99.90;;;;;;6713740;88;20111;-75
2024/04/17 14:02:38;;;;;;;;;;;11.90;99.90;;;;;;6714956;88;20196;-77
2024/04/17 14:12:39;;;;;;;;;;;12.40;99.90;;;;;;6716945;88;20239;-77
2024/04/17 14:22:39;;;;;;;;;;;12.50;99.90;;;;;;6714031;88;20172;-76
2024/04/17 14:32:40;;;;;;;;;;;12.60;99.90;;;;;;6716427;88;20066;-76
2024/04/17 14:42:41;;;;;;;;;;;13.00;99.90;;;;;;6712999;88;20076;-79
2024/04/17 14:52:42;;;;;;;;;;;12.70;99.90;;;;;;6714673;88;20054;-77
2024/04/17 15:02:42;;;;;;;;;;;11.90;99.90;;;;;;6722538;88;20067;-78
2024/04/17 15:12:47;;;;;;;;;;;11.30;99.90;;;;;;6728021;88;20085;-78
2024/04/17 15:22:48;;;;;;;;;;;10.70;99.90;;;;;;6727844;88;20534;-77
2024/04/17 15:32:49;;;;;;;;;;;9.80;99.90;;;;;;6729732;88;20117;-80
2024/04/17 15:42:49;;;;;;;;;;;9.30;99.90;;;;;;6729301;88;20099;-79
2024/04/17 15:52:50;;;;;;;;;;;9.50;99.90;;;;;;6720107;88;20066;-78
2024/04/17 16:02:50;;;;;;;;;;;9.70;99.90;;;;;;6721383;88;20145;-79
2024/04/17 16:12:51;;;;;;;;;;;10.20;99.90;;;;;;6721462;88;20056;-76
2024/04/17 16:22:51;;;;;;;;;;;9.70;99.90;;;;;;6719299;88;20080;-77
2024/04/17 16:32:52;;;;;;;;;;;9.40;99.90;;;;;;6719756;88;20065;-77
2024/04/17 16:42:52;;;;;;;;;;;9.30;99.90;;;;;;6721925;88;20067;-78
2024/04/17 16:52:55;;;;;;;;;;;9.20;99.90;;;;;;6726248;88;20093;-77
2024/04/17 17:02:56;;;;;;;;;;;9.20;99.90;;;;;;6727031;88;20904;-78
2024/04/17 17:12:57;;;;;;;;;;;8.80;99.90;;;;;;6717635;88;20069;-79
2024/04/17 17:22:57;;;;;;;;;;;8.30;99.90;;;;;;6727741;88;20078;-77
2024/04/17 17:32:58;;;;;;;;;;;7.40;99.90;;;;;;6714563;88;20068;-78
2024/04/17 17:42:59;;;;;;;;;;;6.50;99.90;;;;;;6721985;88;20087;-77
2024/04/17 17:53:00;;;;;;;;;;;6.30;99.90;;;;;;6721216;88;20050;-80
2024/04/17 18:03:00;;;;;;;;;;;6.50;99.90;;;;;;6730258;88;20090;-79
2024/04/17 18:13:01;;;;;;;;;;;6.80;99.90;;;;;;6712093;88;20059;-79
2024/04/17 18:23:01;;;;;;;;;;;6.60;99.90;;;;;;6711945;88;20181;-77
2024/04/17 18:33:01;;;;;;;;;;;6.30;99.90;;;;;;6725386;88;20170;-77
2024/04/17 18:43:02;;;;;;;;;;;6.00;99.90;;;;;;6723446;88;20139;-78
2024/04/17 18:53:03;;;;;;;;;;;5.90;99.90;;;;;;6724242;88;20173;-79
2024/04/17 19:03:03;;;;;;;;;;;5.90;99.90;;;;;;6722527;88;20098;-78
2024/04/17 19:13:05;;;;;;;;;;;5.90;99.90;;;;;;6723831;88;20086;-77
2024/04/17 19:23:06;;;;;;;;;;;5.80;99.90;;;;;;6718885;88;20084;-78
2024/04/17 19:33:06;;;;;;;;;;;5.60;99.90;;;;;;6720558;88;20520;-78
2024/04/17 19:43:06;;;;;;;;;;;5.60;99.90;;;;;;6724665;88;20085;-78
2024/04/17 19:53:07;;;;;;;;;;;5.70;99.90;;;;;;6726751;88;20055;-78
2024/04/17 20:03:07;;;;;;;;;;;5.80;99.90;;;;;;6724110;88;20081;-78
2024/04/17 20:13:08;;;;;;;;;;;5.70;99.90;;;;;;6724477;88;20219;-77
2024/04/17 20:23:08;;;;;;;;;;;5.80;99.90;;;;;;6722859;88;20043;-77
2024/04/17 20:33:09;;;;;;;;;;;5.90;99.90;;;;;;6725900;88;20113;-78
2024/04/17 20:43:09;;;;;;;;;;;5.70;99.90;;;;;;6723947;88;20085;-78
2024/04/17 20:53:11;;;;;;;;;;;5.80;99.90;;;;;;6718777;88;20061;-78
2024/04/17 21:03:12;;;;;;;;;;;5.80;99.90;;;;;;6725510;88;20047;-77
2024/04/17 21:13:12;;;;;;;;;;;5.80;99.90;;;;;;6719311;88;20051;-78
2024/04/17 21:23:14;;;;;;;;;;;5.70;99.90;;;;;;6725524;88;20075;-78
2024/04/17 21:33:14;;;;;;;;;;;5.70;99.90;;;;;;6718865;88;20050;-77
2024/04/17 21:43:15;;;;;;;;;;;5.20;99.90;;;;;;6720407;88;20114;-77
2024/04/17 21:53:16;;;;;;;;;;;5.00;99.90;;;;;;6719583;88;20100;-77
2024/04/17 22:03:17;;;;;;;;;;;5.10;99.90;;;;;;6720710;88;20058;-78
2024/04/17 22:13:18;;;;;;;;;;;4.90;99.90;;;;;;6726090;88;20173;-77
2024/04/17 22:23:18;;;;;;;;;;;4.90;99.90;;;;;;6724693;88;20076;-78
2024/04/17 22:33:19;;;;;;;;;;;4.70;99.90;;;;;;6721873;88;20066;-78
2024/04/17 22:43:19;;;;;;;;;;;4.70;99.90;;;;;;6723279;88;20510;-77
2024/04/17 22:53:20;;;;;;;;;;;4.70;99.90;;;;;;6722852;88;20176;-77
2024/04/17 23:03:20;;;;;;;;;;;4.70;99.90;;;;;;6719829;88;20855;-77
2024/04/17 23:13:21;;;;;;;;;;;4.70;99.90;;;;;;6718691;88;20093;-77
2024/04/17 23:23:21;;;;;;;;;;;4.70;99.90;;;;;;6722039;88;20073;-77
2024/04/17 23:33:21;;;;;;;;;;;4.60;99.90;;;;;;6742703;77;20476;-75
2024/04/17 23:43:22;;;;;;;;;;;4.60;99.90;;;;;;6736630;88;20071;-74
2024/04/17 23:53:22;;;;;;;;;;;4.60;99.90;;;;;;6735774;88;20482;-76
